Tiempo atmosférico en la estación meteorológica de La Rambla, Córdoba (200 m.)



Fecha
DESCASC
Temp. máxima en grados centígrados (hora)
DESCASC
Temp. mínima en grados centígrados (hora)
DESCASC
Temp. media en grados centígrados
DESCASC
Racha de viento máxima en m/sg (hora)
DESCASC
Velocidad máxima media en intervalos de 10 minutos(hora)
DESCASC
Precipitaciones diarias en mm
DESCASC
Precipitaciones de 00:00 a 06:00 en mm
DESCASC
Precipitaciones de 06:00 a 12:00 en mm
DESCASC
Precipitaciones de 12:00 a 18:00 en mm
DESCASC
Precipitaciones de 18:00 a 24:00 en mm
DESCASC
19-09-2019 31.4 (17:40) 15.1 (08:10) 23.3 6.67 (18:00) 4.17 (18:00) 0 0 0 0 0
18-09-2019 30.3 (16:20) 17.1 (08:20) 23.7 5.83 (16:30) 3.61 (17:30) 0 0 0 0 0
17-09-2019 29.1 (18:10) 18.3 (00:00) 23.7 7.22 (15:20) 5.28 (18:50) 0 0 0 0 0
16-09-2019 31 (17:20) 17.6 (00:00) 24.3 4.72 (18:20) 2.5 (17:20) 0 0 0 0 0
15-09-2019 28.6 (18:00) 18.6 (00:00) 23.6 5.83 (06:00) 3.06 (06:00) 33.8 31.6 2.2 0 0
14-09-2019 24.5 (18:20) 17.3 (00:00) 20.9 8.89 (15:40) 6.11 (17:00) 6.2 0 4.8 1.4 0
13-09-2019 27.5 (17:40) 17 (00:00) 22.3 14.44 (10:40) 9.44 (12:00) 1 0.6 0 0 0.4
12-09-2019 27.2 (15:20) 17.2 (00:00) 22.2 13.61 (23:10) 8.89 (23:10) 2.8 0 0 0 2.8
11-09-2019 28.5 (16:00) 13 (00:00) 20.8 11.11 (23:20) 6.39 (23:20) 0 0 0 0 0
10-09-2019 28.5 (17:00) 15.5 (08:20) 22 11.11 (15:20) 6.94 (17:00) 0 0 0 0 0
09-09-2019 33.8 (17:50) 17.6 (07:50) 25.7 10.83 (22:10) 7.78 (22:30) 0 0 0 0 0
08-09-2019 27.6 (16:50) 20 (00:00) 23.8 10.83 (01:10) 6.94 (01:10) 0.6 0 0.4 0.2 0
07-09-2019 34.8 (17:00) 19.9 (00:00) 27.3 11.11 (22:50) 6.94 (17:00) 0 0 0 0 0
06-09-2019 35.6 (16:50) 19.9 (00:00) 27.7 9.72 (16:50) 6.11 (19:20) 0 0 0 0 0
05-09-2019 37.7 (17:50) 18.9 (00:00) 28.3 9.17 (20:20) 6.11 (20:20) 0 0 0 0 0
04-09-2019 37 (18:10) 22.5 (00:00) 29.8 9.17 (17:00) 5.28 (16:20) 0 0 0 0 0
03-09-2019 37.9 (16:40) 19.9 (00:00) 28.9 8.06 (18:50) 5.83 (20:00) 0 0 0 0 0
02-09-2019 38.7 (16:20) 20.7 (00:00) 29.7 10.28 (19:20) 7.5 (18:10) 0 0 0 0 0
01-09-2019 38.5 (17:30) 20 (00:00) 29.3 7.22 (21:50) 5 (22:00) 0 0 0 0 0
31-08-2019 37.9 (17:00) 19.7 (00:00) 28.8 6.39 (14:30) 3.89 (14:30) 0 0 0 0 0
30-08-2019 38.1 (16:20) 18.7 (00:00) 28.4 10.56 (23:59) 5.28 (20:00) 0 0 0 0 0
29-08-2019 37.1 (17:00) 21.3 (00:00) 29.2 9.72 (18:50) 6.67 (19:00) 0 0 0 0 0
28-08-2019 35.9 (17:40) 17 (00:00) 26.5 6.11 (16:00) 3.61 (19:30) 0 0 0 0 0
27-08-2019 31.3 (18:20) 16.7 (00:00) 24 6.67 (16:10) 3.61 (16:00) 0 0 0 0 0
26-08-2019 33.2 (16:40) 18.1 (00:00) 25.7 14.17 (22:00) 8.89 (19:20) 4 0 0 0 4
25-08-2019 36.1 (16:30) 18.8 (00:00) 27.4 13.61 (17:40) 7.22 (20:20) 0 0 0 0 0
24-08-2019 37.4 (17:20) 19.3 (00:00) 28.4 9.17 (19:50) 6.67 (19:50) 0 0 0 0 0
23-08-2019 37.5 (17:20) 19 (00:00) 28.3 9.17 (21:40) 6.11 (17:50) 0 0 0 0 0
22-08-2019 36.8 (17:20) 21.4 (00:00) 29.1 8.89 (17:40) 6.39 (17:40) 0 0 0 0 0
21-08-2019 36.3 (16:30) 20.5 (00:00) 28.4 10.83 (15:10) 5.28 (21:10) 0 0 0 0 0

Gráficas

Temp. máximas Temp. mínimas Temp. medias Precipitaciones Rachas de viento máximas Velocidades máximas media en intervalos de 10 minutos

Datos horarios

Fecha y hora oficial Temperatura (ºC) Velocidad del viento (km/h) Dirección del viento Racha (km/h) Dirección de racha Precipitación (mm) Presión (hPa) Tendencia (hPa) Humedad (%)
2019-09-19 23:00:00 23.1 2 Sudeste 6 Sudeste 0 -- -- 57
2019-09-19 22:00:00 24.3 2 Este 6 Sudoeste 0 -- -- 55
2019-09-19 21:00:00 26.4 4 Oeste 11 Sudoeste 0 -- -- 48
2019-09-19 20:00:00 28.7 6 Sudoeste 15 Sudoeste 0 -- -- 44
2019-09-19 19:00:00 30.3 10 Sudoeste 21 Sudoeste 0 -- -- 42
2019-09-19 18:00:00 31.3 15 Sudoeste 24 Sudoeste 0 -- -- 40
2019-09-19 17:00:00 31.2 5 Sudoeste 17 Sudoeste 0 -- -- 39
2019-09-19 16:00:00 30.8 11 Sudoeste 21 Sudoeste 0 -- -- 42
2019-09-19 15:00:00 29.2 6 Sudoeste 14 Sur 0 -- -- 47
2019-09-19 14:00:00 27.2 4 Oeste 12 Nordeste 0 -- -- 52
2019-09-19 13:00:00 25.4 6 Nordeste 12 Noroeste 0 -- -- 58
2019-09-19 12:00:00 23.1 6 Norte 10 Nordeste 0 -- -- 69
2019-09-19 11:00:00 21.2 3 Norte 6 Norte 0 -- -- 78
2019-09-19 10:00:00 18.8 2 Noroeste 6 Norte 0 -- -- 89
2019-09-19 09:00:00 15.5 0 Calma 3 Norte 0 -- -- 94
2019-09-19 08:00:00 15.2 3 Este 5 Norte 0 -- -- 93
2019-09-19 07:00:00 15.6 4 Norte 6 Norte 0 -- -- 93
2019-09-19 06:00:00 15.9 0 Calma 4 Sudoeste 0 -- -- 91
2019-09-19 05:00:00 16.2 0 Calma 8 Sur 0 -- -- 89
2019-09-19 04:00:00 16.8 4 Sur 8 Sur 0 -- -- 88
2019-09-19 03:00:00 17.8 0 Calma 8 Sudoeste 0 -- -- 84
2019-09-19 02:00:00 18.5 8 Sur 10 Sudoeste 0 -- -- 82
2019-09-19 01:00:00 19.4 6 Sur 14 Sudoeste 0 -- -- 78
2019-09-19 00:00:00 20.1 7 Sudoeste 12 Sudoeste 0 -- -- 72
2019-09-18 23:00:00 21.3 6 Sudeste 8 Sudeste 0 -- -- 69
2019-09-18 22:00:00 22.8 4 Sudeste 6 Sudeste 0 -- -- 64
2019-09-18 21:00:00 25 3 Sudoeste 9 Sudoeste 0 -- -- 54
2019-09-18 20:00:00 27.6 8 Sudoeste 17 Sudoeste 0 -- -- 50
2019-09-18 19:00:00 29.4 8 Oeste 20 Sudoeste 0 -- -- 45
2019-09-18 18:00:00 29.9 7 Oeste 21 Sudoeste 0 -- -- 46
2019-09-18 17:00:00 30 10 Sur 21 Sudoeste 0 -- -- 49
2019-09-18 16:00:00 30 6 Sur 16 Sudoeste 0 -- -- 50
2019-09-18 15:00:00 29 5 Sudeste 12 Sur 0 -- -- 53
2019-09-18 14:00:00 27.8 6 Sur 12 Sudoeste 0 -- -- 59
2019-09-18 13:00:00 26 4 Sudoeste 11 Sudoeste 0 -- -- 66
2019-09-18 12:00:00 24.2 5 Sur 9 Sudoeste 0 -- -- 73
2019-09-18 11:00:00 22.6 4 Sur 6 Sur 0 -- -- 82
2019-09-18 10:00:00 20.2 0 Calma 4 Nordeste 0 -- -- 92
2019-09-18 09:00:00 17.5 0 Calma 3 Norte 0 -- -- 96
2019-09-18 08:00:00 17.3 0 Calma 5 Norte 0 -- -- 94
2019-09-18 07:00:00 17.8 0 Calma 4 Norte 0 -- -- 94
2019-09-18 06:00:00 18.3 2 Sudeste 5 Norte 0 -- -- 93
2019-09-18 05:00:00 18.8 0 Calma 6 Sur 0 -- -- 91
2019-09-18 04:00:00 19.6 0 Calma 10 Sudoeste 0 -- -- 90
2019-09-18 03:00:00 20.2 6 Sudeste 14 Sudoeste 0 -- -- 88
2019-09-18 02:00:00 20.7 9 Sur 14 Sur 0 -- -- 85
2019-09-18 01:00:00 21.3 3 Sudeste 15 Sur 0 -- -- 82
2019-09-18 00:00:00 21.5 6 Sur 11 Sur 0 -- -- 77
2019-09-17 23:00:00 22.2 0 Calma 7 Norte 0 -- -- 77
2019-09-17 22:00:00 23.2 3 Este 6 Norte 0 -- -- 75
2019-09-17 21:00:00 25.1 3 Norte 8 Sur 0 -- -- 68
2019-09-15 18:00:00 -- -- -- -- -- -- -- -- --
2019-09-15 17:00:00 -- -- -- -- -- -- -- -- --
2019-09-15 16:00:00 -- -- -- -- -- -- -- -- --
2019-09-15 15:00:00 -- -- -- -- -- -- -- -- --
2019-09-15 14:00:00 23 2 Sur 7 Sudeste 0 -- -- 91
2019-09-15 13:00:00 21.9 5 Nordeste 10 Nordeste 0 -- -- 91
2019-09-15 12:00:00 21.9 5 Nordeste 14 Nordeste 0 -- -- 93
2019-09-15 11:00:00 21.2 8 Nordeste 13 Nordeste 0.4 -- -- 96
2019-09-15 10:00:00 20.5 4 Nordeste 7 Norte 1 -- -- 98
2019-09-15 09:00:00 19.7 5 Norte 8 Norte 0 -- -- 98
2019-09-15 08:00:00 19.3 3 Nordeste 10 Nordeste 0 -- -- 97
2019-09-15 07:00:00 19.5 3 Nordeste 15 Noroeste 0.8 -- -- 97
2019-09-15 06:00:00 19.5 11 Oeste 21 Noroeste 31.4 -- -- 96
2019-09-15 05:00:00 19.5 2 Sur 8 Norte 0.2 -- -- 94
2019-09-15 04:00:00 19 4 Norte 7 Norte 0 -- -- 94
2019-09-15 03:00:00 18.8 4 Norte 8 Norte 0 -- -- 94
2019-09-15 02:00:00 18.7 3 Norte 6 Norte 0 -- -- 93
2019-09-15 01:00:00 19.4 0 Calma 5 Este 0 -- -- 92
2019-09-15 00:00:00 19.7 2 Sudoeste 11 Sur 0 -- -- 91
2019-09-14 23:00:00 20.5 3 Este 13 Sudoeste 0 -- -- 88
2019-09-14 22:00:00 21.5 2 Norte 9 Nordeste 0 -- -- 85
2019-09-14 21:00:00 22.1 7 Norte 12 Norte 0 -- -- 82
2019-09-14 20:00:00 23.2 5 Norte 18 Nordeste 0 -- -- 78
2019-09-14 19:00:00 24.3 13 Nordeste 27 Este 0 -- -- 71
2019-09-14 18:00:00 24.2 17 Nordeste 31 Nordeste 0 -- -- 76
2019-09-14 17:00:00 23.4 22 Nordeste 30 Nordeste 0 -- -- 80
2019-09-14 16:00:00 21.6 18 Norte 32 Nordeste 0 -- -- 88
2019-09-14 15:00:00 20.8 18 Norte 27 Norte 0 -- -- 91
2019-09-14 14:00:00 19.4 8 Norte 20 Norte 1.2 -- -- 93
2019-09-14 13:00:00 19.2 13 Norte 21 Norte 0.2 -- -- 90
2019-09-14 12:00:00 18.8 8 Norte 19 Este 0.4 -- -- 91
2019-09-14 11:00:00 18.3 8 Nordeste 13 Nordeste 0.4 -- -- 90
2019-09-14 10:00:00 17.9 5 Norte 13 Este 0.8 -- -- 93
2019-09-14 09:00:00 17.8 10 Sudeste 15 Sudeste 2 -- -- 94
2019-09-14 08:00:00 18.1 3 Este 17 Noroeste 1.2 -- -- 90
2019-09-14 07:00:00 17.9 7 Este 12 Este 0 -- -- 87
2019-09-14 06:00:00 -- -- -- -- -- -- -- -- --
2019-09-14 05:00:00 -- -- -- -- -- -- -- -- --
2019-09-14 04:00:00 -- -- -- -- -- -- -- -- --
2019-09-14 03:00:00 -- -- -- -- -- -- -- -- --
2019-09-14 02:00:00 19.4 0 Calma 23 Nordeste 0 -- -- 76
2019-09-14 01:00:00 19.5 13 Norte 20 Norte 0 -- -- 76
2019-09-14 00:00:00 18.6 6 Norte 16 Norte 0 -- -- 77
2019-09-13 23:00:00 19 7 Norte 16 Norte 0 -- -- 70
2019-09-13 22:00:00 19.1 2 Norte 9 Nordeste 0 -- -- 74
2019-09-13 21:00:00 19.4 3 Nordeste 21 Este 0 -- -- 71
2019-09-13 20:00:00 19 7 Sudeste 25 Sur 0.4 -- -- 72
2019-09-13 19:00:00 20.8 17 Sudeste 50 Sur 0 -- -- 56
2019-09-13 18:00:00 26.7 16 Nordeste 39 Nordeste 0 -- -- 51
2019-09-13 17:00:00 27.1 21 Nordeste 39 Nordeste 0 -- -- 50
2019-09-13 16:00:00 26 19 Nordeste 36 Nordeste 0 -- -- 55
2019-09-13 15:00:00 24.5 23 Nordeste 46 Nordeste 0 -- -- 61
2019-09-13 14:00:00 23.4 22 Nordeste 41 Nordeste 0 -- -- 63
2019-09-13 13:00:00 22.3 26 Nordeste 45 Nordeste 0 -- -- 69
2019-09-13 12:00:00 19.9 34 Nordeste 47 Nordeste 0 -- -- 77
2019-09-13 11:00:00 18.6 27 Nordeste 52 Nordeste 0 -- -- 81
2019-09-13 10:00:00 18.5 25 Nordeste 43 Nordeste 0 -- -- 80
2019-09-13 09:00:00 17.6 19 Norte 30 Norte 0 -- -- 83
2019-09-13 08:00:00 17.1 21 Nordeste 33 Nordeste 0 -- -- 84
2019-09-13 07:00:00 17.1 19 Nordeste 37 Nordeste 0 -- -- 82
2019-09-13 06:00:00 17.5 15 Nordeste 37 Nordeste 0 -- -- 81
2019-09-13 05:00:00 17.5 18 Nordeste 46 Nordeste 0.2 -- -- 83
2019-09-13 04:00:00 18.5 28 Nordeste 47 Este 0 -- -- 79
2019-09-13 03:00:00 18.5 19 Nordeste 33 Este 0 -- -- 82
2019-09-13 02:00:00 18.1 15 Nordeste 36 Nordeste 0 -- -- 88
2019-09-13 01:00:00 18.2 28 Nordeste 50 Nordeste 0.4 -- -- 90
2019-09-13 00:00:00 18.2 31 Nordeste 49 Nordeste 1.2 -- -- 90
2019-09-12 23:00:00 18.6 31 Nordeste 47 Nordeste 1 -- -- 88
2019-09-12 22:00:00 19.7 30 Nordeste 46 Nordeste 0.6 -- -- 83
2019-09-12 21:00:00 22.5 22 Nordeste 42 Nordeste 0 -- -- 64
2019-09-12 20:00:00 24.5 24 Nordeste 37 Nordeste 0 -- -- 51
2019-09-12 19:00:00 25.5 29 Nordeste 44 Nordeste 0 -- -- 48
2019-09-12 18:00:00 26.7 24 Nordeste 42 Nordeste 0 -- -- 46
2019-09-12 17:00:00 26.7 23 Nordeste 42 Nordeste 0 -- -- 45
2019-09-12 16:00:00 26.4 24 Nordeste 49 Nordeste 0 -- -- 47
2019-09-12 15:00:00 26.5 26 Nordeste 39 Nordeste 0 -- -- 46
2019-09-12 14:00:00 26.3 23 Nordeste 46 Nordeste 0 -- -- 48
2019-09-12 13:00:00 25.8 17 Nordeste 36 Este 0 -- -- 46
2019-09-12 12:00:00 24.3 13 Nordeste 36 Nordeste 0 -- -- 51
2019-09-12 11:00:00 21.6 23 Nordeste 40 Nordeste 0 -- -- 58
2019-09-12 10:00:00 19.2 12 Norte 18 Norte 0 -- -- 57
2019-09-12 09:00:00 17.8 3 Noroeste 6 Norte 0 -- -- 59
2019-09-12 08:00:00 17.4 3 Norte 9 Norte 0 -- -- 60
2019-09-12 07:00:00 17.4 5 Norte 18 Nordeste 0 -- -- 60
2019-09-12 06:00:00 17.3 6 Norte 23 Norte 0 -- -- 61
2019-09-12 05:00:00 18.2 13 Nordeste 32 Nordeste 0 -- -- 60
2019-09-12 04:00:00 18.6 20 Nordeste 35 Nordeste 0 -- -- 59
2019-09-12 03:00:00 19.2 22 Nordeste 33 Nordeste 0 -- -- 56
2019-09-12 02:00:00 19.9 16 Nordeste 28 Nordeste 0 -- -- 53
2019-09-12 01:00:00 20.8 9 Este 36 Nordeste 0 -- -- 48
2019-09-12 00:00:00 21.9 19 Nordeste 40 Este 0 -- -- 44
2019-09-11 23:00:00 23.1 15 Nordeste 33 Nordeste 0 -- -- 43
2019-09-11 22:00:00 24.3 17 Nordeste 33 Nordeste 0 -- -- 38
2019-09-11 21:00:00 25.2 12 Nordeste 26 Este 0 -- -- 37
2019-09-11 20:00:00 26.4 11 Nordeste 21 Nordeste 0 -- -- 34
2019-09-11 19:00:00 26.8 10 Nordeste 30 Nordeste 0 -- -- 34
2019-09-11 18:00:00 27.9 12 Nordeste 30 Nordeste 0 -- -- 32
2019-09-11 17:00:00 28.1 20 Nordeste 34 Nordeste 0 -- -- 32
2019-09-11 16:00:00 28.5 17 Este 33 Nordeste 0 -- -- 32
2019-09-11 15:00:00 26.6 13 Nordeste 34 Nordeste 0 -- -- 34
2019-09-11 14:00:00 25.8 15 Norte 30 Norte 0 -- -- 34
2019-09-11 13:00:00 24.5 13 Nordeste 31 Nordeste 0 -- -- 37
2019-09-11 12:00:00 22.6 13 Nordeste 26 Nordeste 0 -- -- 40
2019-09-11 11:00:00 20.7 10 Nordeste 22 Nordeste 0 -- -- 43
2019-09-11 10:00:00 18.9 13 Nordeste 24 Nordeste 0 -- -- 46
2019-09-11 09:00:00 14.9 4 Noroeste 10 Norte 0 -- -- 53
2019-09-11 08:00:00 14.2 8 Nordeste 15 Norte 0 -- -- 54
2019-09-11 07:00:00 13.3 5 Norte 9 Norte 0 -- -- 55
2019-09-11 06:00:00 14.3 3 Norte 14 Nordeste 0 -- -- 50
2019-09-11 05:00:00 15.7 9 Norte 14 Norte 0 -- -- 47
2019-09-11 04:00:00 16.4 8 Norte 12 Nordeste 0 -- -- 44
2019-09-11 03:00:00 18.7 8 Nordeste 22 Nordeste 0 -- -- 41
2019-09-11 02:00:00 19.7 14 Nordeste 23 Nordeste 0 -- -- 36
2019-09-11 01:00:00 18.7 7 Norte 13 Nordeste 0 -- -- 34
2019-09-11 00:00:00 20.1 8 Norte 17 Nordeste 0 -- -- 31
2019-09-10 23:00:00 19.7 8 Nordeste 13 Nordeste 0 -- -- 29
2019-09-10 22:00:00 22.3 10 Norte 20 Noroeste 0 -- -- 27
2019-09-10 21:00:00 25 13 Noroeste 24 Noroeste 0 -- -- 26
2019-09-10 20:00:00 26.8 11 Norte 27 Noroeste 0 -- -- 25
2019-09-10 19:00:00 27.5 13 Noroeste 30 Noroeste 0 -- -- 26
2019-09-10 18:00:00 28 11 Norte 32 Norte 0 -- -- 27
2019-09-10 17:00:00 28.5 25 Noroeste 37 Norte 0 -- -- 28
2019-09-10 16:00:00 28.1 21 Noroeste 40 Norte 0 -- -- 30
2019-09-10 15:00:00 27.3 24 Noroeste 39 Norte 0 -- -- 32
2019-09-10 14:00:00 25.6 17 Oeste 30 Noroeste 0 -- -- 41
2019-09-10 13:00:00 24.3 16 Noroeste 27 Noroeste 0 -- -- 45
2019-09-10 12:00:00 22.1 11 Oeste 29 Oeste 0 -- -- 52
2019-09-10 11:00:00 20.4 20 Oeste 29 Oeste 0 -- -- 55
2019-09-10 10:00:00 18.6 7 Sudoeste 15 Sur 0 -- -- 58
2019-09-10 09:00:00 15.9 6 Sur 13 Oeste 0 -- -- 68
2019-09-10 08:00:00 15.6 10 Sudoeste 21 Sudoeste 0 -- -- 69
2019-09-10 07:00:00 17.1 12 Sudoeste 19 Sudoeste 0 -- -- 65
2019-09-10 06:00:00 17.2 6 Sudoeste 10 Sudoeste 0 -- -- 74
2019-09-10 05:00:00 18.5 3 Sudoeste 17 Sur 0 -- -- 72
2019-09-10 04:00:00 19.9 11 Sudoeste 19 Sudoeste 0 -- -- 69
2019-09-10 03:00:00 21 13 Sur 21 Sudoeste 0 -- -- 66
2019-09-10 02:00:00 21.8 14 Sudoeste 20 Sudoeste 0 -- -- 64
2019-09-10 01:00:00 22.8 14 Sudoeste 26 Sudoeste 0 -- -- 61
2019-09-10 00:00:00 23.8 19 Sudoeste 33 Sudoeste 0 -- -- 58
2019-09-09 23:00:00 25.1 21 Sudoeste 39 Sudoeste 0 -- -- 53
2019-09-09 22:00:00 27 23 Sudoeste 36 Sudoeste 0 -- -- 45
2019-09-09 21:00:00 29 24 Sudoeste 37 Sudoeste 0 -- -- 42
2019-09-09 20:00:00 31.1 17 Sudoeste 32 Oeste 0 -- -- 32
2019-09-09 19:00:00 32.3 15 Oeste 32 Sudoeste 0 -- -- 31
2019-09-09 18:00:00 33.5 19 Sudoeste 32 Sudoeste 0 -- -- 33
2019-09-09 17:00:00 33.7 15 Sudoeste 32 Sudoeste 0 -- -- 33
2019-09-09 16:00:00 32.6 11 Oeste 26 Sudoeste 0 -- -- 37
2019-09-09 15:00:00 31.4 14 Sur 24 Sur 0 -- -- 43
2019-09-09 14:00:00 29.6 10 Sudoeste 17 Sudoeste 0 -- -- 48
2019-09-09 13:00:00 27.1 10 Sudoeste 18 Sudoeste 0 -- -- 57
2019-09-09 12:00:00 26.2 9 Sur 18 Sudoeste 0 -- -- 63
2019-09-09 11:00:00 23.8 4 Sur 13 Sur 0 -- -- 72
2019-09-09 10:00:00 22.5 2 Sudeste 5 Sur 0 -- -- 72
2019-09-09 09:00:00 18.7 0 Calma 3 Norte 0 -- -- 78
2019-09-09 08:00:00 17.7 0 Calma 3 Norte 0 -- -- 83
2019-09-09 07:00:00 18.3 0 Calma 4 Este 0 -- -- 78
2019-09-09 06:00:00 19.3 0 Calma 8 Sudoeste 0 -- -- 79
2019-09-09 05:00:00 20 6 Sudoeste 9 Sudoeste 0 -- -- 77
2019-09-09 04:00:00 19.8 5 Sur 7 Sur 0 -- -- 77
2019-09-09 03:00:00 19.7 0 Calma 2 Norte 0 -- -- 75
2019-09-09 02:00:00 19.2 3 Sudeste 5 Este 0 -- -- 77
2019-09-09 01:00:00 19.9 2 Este 5 Este 0 -- -- 72
2019-09-09 00:00:00 21.2 4 Sudeste 15 Oeste 0 -- -- 70
2019-09-08 23:00:00 21.5 5 Sudoeste 9 Sudoeste 0 -- -- 68
2019-09-08 22:00:00 21.9 6 Sur 20 Sudoeste 0 -- -- 67
2019-09-08 21:00:00 22.6 14 Sudoeste 21 Sudeste 0 -- -- 63
2019-09-08 20:00:00 23.7 13 Sudeste 28 Sudeste 0 -- -- 58
2019-09-08 19:00:00 25.8 17 Sudeste 33 Sudeste 0 -- -- 56
2019-09-08 18:00:00 27.2 8 Nordeste 16 Nordeste 0 -- -- 50
2019-09-08 17:00:00 27.5 5 Norte 10 Norte 0 -- -- 47
2019-09-08 16:00:00 27 3 Oeste 10 Sudoeste 0 -- -- 52
2019-09-08 15:00:00 25.8 3 Nordeste 10 Norte 0.2 -- -- 66
2019-09-08 14:00:00 24.9 8 Nordeste 15 Nordeste 0 -- -- 67
2019-09-08 13:00:00 24.5 7 Nordeste 19 Nordeste 0 -- -- 67
2019-09-08 12:00:00 23.9 10 Nordeste 18 Nordeste 0 -- -- 66
2019-09-08 11:00:00 24.6 10 Nordeste 18 Nordeste 0 -- -- 65
2019-09-08 10:00:00 21.1 8 Nordeste 18 Nordeste 0 -- -- 79
2019-09-08 09:00:00 20.2 3 Nordeste 10 Este 0 -- -- 85
2019-09-08 08:00:00 20.1 3 Oeste 15 Este 0 -- -- 82
2019-09-08 07:00:00 21.2 6 Este 19 Este 0.4 -- -- 81
2019-09-08 06:00:00 22.1 8 Nordeste 20 Este 0 -- -- 76
2019-09-08 05:00:00 22.8 7 Este 14 Este 0 -- -- 77
2019-09-08 04:00:00 23.1 6 Sur 20 Sudoeste 0 -- -- 73
2019-09-08 03:00:00 23.3 14 Sur 23 Sur 0 -- -- 72
2019-09-08 02:00:00 23.7 12 Sur 39 Sur 0 -- -- 71
2019-09-08 01:00:00 24 22 Sur 34 Sur 0 -- -- 70
2019-09-08 00:00:00 24.2 21 Sur 36 Sur 0 -- -- 68
2019-09-07 23:00:00 25.1 24 Sur 40 Sur 0 -- -- 61
2019-09-07 22:00:00 26.1 15 Sur 27 Sur 0 -- -- 51
2019-09-07 21:00:00 27.2 10 Sur 24 Sur 0 -- -- 47
2019-09-07 20:00:00 29.3 18 Sudoeste 31 Sur 0 -- -- 42
2019-09-07 19:00:00 31 24 Sudoeste 31 Sudoeste 0 -- -- 37
2019-09-07 18:00:00 32.7 22 Sur 37 Sudoeste 0 -- -- 35
2019-09-07 17:00:00 34.8 25 Sur 31 Sur 0 -- -- 33
2019-09-07 16:00:00 33.9 12 Sudoeste 30 Sudoeste 0 -- -- 38
2019-09-07 15:00:00 33.4 13 Sudoeste 26 Sudoeste 0 -- -- 39
2019-09-07 14:00:00 32 10 Sudoeste 23 Este 0 -- -- 43
2019-09-07 13:00:00 31.3 12 Sudoeste 30 Sudeste 0 -- -- 42
2019-09-07 12:00:00 29.4 6 Sur 17 Sudeste 0 -- -- 46
2019-09-07 11:00:00 27.3 6 Sur 20 Sudeste 0 -- -- 55
2019-09-07 10:00:00 25.2 9 Sudeste 14 Sudeste 0 -- -- 62
2019-09-07 09:00:00 20.9 2 Sudeste 5 Sudeste 0 -- -- 75
2019-09-07 08:00:00 20 2 Nordeste 6 Sur 0 -- -- 68
2019-09-07 07:00:00 19.9 6 Sur 10 Sudeste 0 -- -- 73
2019-09-07 06:00:00 20.4 5 Sur 8 Sur 0 -- -- 74
2019-09-07 05:00:00 21.5 0 Calma 8 Sudoeste 0 -- -- 70
2019-09-07 04:00:00 22.4 4 Sudoeste 14 Sur 0 -- -- 66
2019-09-07 03:00:00 22.2 3 Sudoeste 8 Sudoeste 0 -- -- 54
2019-09-07 02:00:00 22.7 6 Sudeste 9 Este 0 -- -- 48
2019-09-07 01:00:00 24.5 2 Oeste 15 Sur 0 -- -- 45
2019-09-07 00:00:00 24.9 7 Sudoeste 13 Sur 0 -- -- 42
2019-09-06 23:00:00 25.6 6 Sudeste 13 Sudeste 0 -- -- 38
2019-09-06 22:00:00 26.8 9 Sur 21 Sur 0 -- -- 38
2019-09-06 21:00:00 28.3 13 Sur 24 Sur 0 -- -- 37
2019-09-06 20:00:00 30.3 18 Sur 30 Sur 0 -- -- 37
2019-09-06 19:00:00 34.2 18 Sur 25 Sudoeste 0 -- -- 34
2019-09-06 18:00:00 35.1 14 Sur 25 Sur 0 -- -- 34
2019-09-06 17:00:00 35.3 14 Sudoeste 35 Sudoeste 0 -- -- 34
2019-09-06 16:00:00 35 13 Sudoeste 24 Sur 0 -- -- 37
2019-09-06 15:00:00 33.5 9 Oeste 24 Sudoeste 0 -- -- 42
2019-09-06 14:00:00 32 7 Este 20 Sudoeste 0 -- -- 46
2019-09-06 13:00:00 31.5 9 Sudoeste 21 Sur 0 -- -- 48
2019-09-06 12:00:00 29.8 8 Sudeste 18 Este 0 -- -- 52
2019-09-06 11:00:00 27.5 3 Norte 9 Noroeste 0 -- -- 56
2019-09-06 10:00:00 25.5 0 Calma 8 Norte 0 -- -- 58
2019-09-06 09:00:00 21.1 2 Nordeste 5 Este 0 -- -- 67
2019-09-06 08:00:00 20.1 3 Nordeste 8 Noroeste 0 -- -- 68
2019-09-06 07:00:00 20.3 3 Norte 5 Norte 0 -- -- 71
2019-09-06 06:00:00 20.4 0 Calma 5 Nordeste 0 -- -- 67
2019-09-06 05:00:00 21.6 2 Norte 5 Este 0 -- -- 65
2019-09-06 04:00:00 22.3 0 Calma 4 Oeste 0 -- -- 68
2019-09-06 03:00:00 23.8 2 Sudoeste 14 Sudoeste 0 -- -- 66
2019-09-06 02:00:00 24.4 11 Sudoeste 18 Sur 0 -- -- 64
2019-09-06 01:00:00 25.3 13 Sur 24 Sur 0 -- -- 62
2019-09-06 00:00:00 26.2 18 Sur 27 Sudeste 0 -- -- 59
2019-09-05 23:00:00 28 13 Sudeste 24 Sudeste 0 -- -- 57
2019-09-05 22:00:00 29.2 10 Sur 21 Sur 0 -- -- 49
2019-09-05 21:00:00 30.8 15 Sur 33 Sur 0 -- -- 48
2019-09-05 20:00:00 34.8 14 Sudoeste 25 Sur 0 -- -- 29
2019-09-05 19:00:00 36.4 19 Sur 27 Sudoeste 0 -- -- 25
2019-09-05 18:00:00 37.5 13 Sudoeste 22 Sudoeste 0 -- -- 27
2019-09-05 17:00:00 36.8 11 Sudoeste 27 Sudoeste 0 -- -- 29
2019-09-05 16:00:00 36.1 8 Oeste 18 Sur 0 -- -- 31
2019-09-05 15:00:00 35 9 Sur 18 Sur 0 -- -- 35
2019-09-05 14:00:00 33.4 8 Sur 18 Sur 0 -- -- 37
2019-09-05 13:00:00 31.8 9 Sudoeste 19 Noroeste 0 -- -- 42
2019-09-05 12:00:00 30.2 7 Sur 16 Sur 0 -- -- 47
2019-09-05 11:00:00 28 5 Sudoeste 10 Sudoeste 0 -- -- 53
2019-09-05 10:00:00 25.2 5 Sur 8 Sur 0 -- -- 60
2019-09-05 09:00:00 20.1 0 Calma 6 Norte 0 -- -- 71
2019-09-05 08:00:00 19.1 0 Calma 6 Norte 0 -- -- 74
2019-09-05 07:00:00 19.2 0 Calma 5 Este 0 -- -- 71
2019-09-05 06:00:00 20 0 Calma 6 Sudeste 0 -- -- 72
2019-09-05 05:00:00 21.3 0 Calma 6 Sur 0 -- -- 68
2019-09-05 04:00:00 22.4 5 Sur 14 Sudoeste 0 -- -- 72
2019-09-05 03:00:00 23.4 11 Sur 17 Sur 0 -- -- 68
2019-09-05 02:00:00 24 10 Sur 18 Sur 0 -- -- 63
2019-09-05 01:00:00 25 13 Sudoeste 16 Sudoeste 0 -- -- 60
2019-09-05 00:00:00 26.8 11 Sur 23 Sudoeste 0 -- -- 57
2019-09-04 23:00:00 27.9 6 Sur 11 Sur 0 -- -- 40
2019-09-04 22:00:00 29.8 5 Sur 15 Sudoeste 0 -- -- 37
2019-09-04 21:00:00 32.8 10 Oeste 25 Sudoeste 0 -- -- 33
2019-09-04 20:00:00 34.5 19 Sudoeste 27 Sudoeste 0 -- -- 32
2019-09-04 19:00:00 36 19 Sur 28 Sudoeste 0 -- -- 31
2019-09-04 18:00:00 36.9 14 Sudoeste 30 Sudoeste 0 -- -- 32
2019-09-04 17:00:00 36.5 15 Sudoeste 33 Sudoeste 0 -- -- 32
2019-09-04 16:00:00 35.9 17 Sur 29 Sur 0 -- -- 35
2019-09-04 15:00:00 34.7 13 Sudoeste 25 Sur 0 -- -- 36
2019-09-04 14:00:00 33.9 12 Sur 22 Sur 0 -- -- 39
2019-09-04 13:00:00 31.9 10 Sudoeste 17 Sudoeste 0 -- -- 41
2019-09-04 12:00:00 29.8 9 Sur 12 Sur 0 -- -- 48
2019-09-04 11:00:00 27.5 3 Sur 7 Sur 0 -- -- 51
2019-09-04 10:00:00 26.2 3 Sur 7 Sur 0 -- -- 55
2019-09-04 09:00:00 23.2 2 Sudoeste 4 Sur 0 -- -- 62
2019-09-04 08:00:00 22.6 4 Oeste 7 Sudoeste 0 -- -- 63
2019-09-04 07:00:00 23.7 6 Sudoeste 14 Sur 0 -- -- 62
2019-09-04 06:00:00 24.2 9 Sur 14 Sur 0 -- -- 62
2019-09-04 05:00:00 23.3 4 Sur 8 Sur 0 -- -- 63
2019-09-04 04:00:00 24.2 7 Sudoeste 13 Sudoeste 0 -- -- 62
2019-09-04 03:00:00 24.9 8 Sudoeste 13 Sudoeste 0 -- -- 58
2019-09-04 02:00:00 26 5 Oeste 19 Sudeste 0 -- -- 50
2019-09-04 01:00:00 25.6 6 Sudoeste 11 Sudoeste 0 -- -- 49
2019-09-04 00:00:00 27.6 5 Sur 24 Sur 0 -- -- 45
2019-09-03 23:00:00 28.7 13 Sudoeste 21 Sur 0 -- -- 42
2019-09-03 22:00:00 29.8 14 Sur 21 Sur 0 -- -- 38
2019-09-03 21:00:00 31.4 10 Sur 26 Sur 0 -- -- 34
2019-09-03 20:00:00 34.2 21 Sur 27 Sudoeste 0 -- -- 30
2019-09-03 19:00:00 36.2 19 Sur 29 Sur 0 -- -- 30
2019-09-03 18:00:00 37.7 15 Sur 27 Sudoeste 0 -- -- 29
2019-09-03 17:00:00 37.1 7 Oeste 23 Sudoeste 0 -- -- 28
2019-09-03 16:00:00 37.2 12 Sudoeste 25 Sudoeste 0 -- -- 29
2019-09-03 15:00:00 36.1 7 Sudoeste 18 Sudoeste 0 -- -- 31
2019-09-03 14:00:00 34.7 7 Sur 15 Sudeste 0 -- -- 34
2019-09-03 13:00:00 33.1 8 Sur 17 Sur 0 -- -- 37
2019-09-03 12:00:00 31.5 9 Sudeste 19 Sudeste 0 -- -- 40
2019-09-03 11:00:00 29.2 8 Sudeste 19 Sudeste 0 -- -- 46
2019-09-03 10:00:00 26.8 7 Sudeste 15 Sur 0 -- -- 55
2019-09-03 09:00:00 22.5 4 Sudeste 10 Sudeste 0 -- -- 68
2019-09-03 08:00:00 20.3 3 Nordeste 6 Norte 0 -- -- 61
2019-09-03 07:00:00 20 3 Sudeste 7 Sudoeste 0 -- -- 63
2019-09-03 06:00:00 21.3 5 Sudoeste 10 Sur 0 -- -- 63
2019-09-03 05:00:00 21.5 2 Sur 11 Sudeste 0 -- -- 62
2019-09-03 04:00:00 21.9 6 Sudoeste 10 Sudoeste 0 -- -- 58
2019-09-03 03:00:00 22.7 7 Sur 11 Sur 0 -- -- 58
2019-09-03 02:00:00 23.4 5 Este 14 Sur 0 -- -- 51
2019-09-03 01:00:00 24.5 10 Sudoeste 13 Sudoeste 0 -- -- 54
2019-09-03 00:00:00 26.4 12 Sudoeste 24 Sur 0 -- -- 49
2019-09-02 23:00:00 27.1 10 Sur 19 Sur 0 -- -- 45
2019-09-02 22:00:00 27.8 7 Sur 14 Sur 0 -- -- 42
2019-09-02 21:00:00 30.2 12 Sur 24 Sur 0 -- -- 40
2019-09-02 20:00:00 32.7 19 Sur 37 Sur 0 -- -- 36
2019-09-02 19:00:00 35.2 22 Sur 36 Sur 0 -- -- 29
2019-09-02 18:00:00 37 26 Sur 36 Sur 0 -- -- 27
2019-09-02 17:00:00 38.6 19 Sur 34 Sur 0 -- -- 26
2019-09-02 16:00:00 38.2 11 Sur 27 Sur 0 -- -- 29
2019-09-02 15:00:00 37.2 12 Oeste 24 Sudoeste 0 -- -- 30
2019-09-02 14:00:00 36.4 5 Sur 22 Sur 0 -- -- 31
2019-09-02 13:00:00 34.6 4 Sur 16 Sur 0 -- -- 35
2019-09-02 12:00:00 32.4 4 Sudoeste 8 Sur 0 -- -- 39
2019-09-02 11:00:00 29.4 3 Sudoeste 10 Norte 0 -- -- 46
2019-09-02 10:00:00 27.2 6 Norte 14 Norte 0 -- -- 51
2019-09-02 09:00:00 22.3 3 Norte 5 Norte 0 -- -- 59
2019-09-02 08:00:00 21.5 3 Nordeste 10 Nordeste 0 -- -- 57
2019-09-02 07:00:00 20.7 0 Calma 4 Sudoeste 0 -- -- 62
2019-09-02 06:00:00 21.4 2 Este 5 Este 0 -- -- 59
2019-09-02 05:00:00 22.5 3 Norte 9 Norte 0 -- -- 56
2019-09-02 04:00:00 23.3 3 Norte 4 Norte 0 -- -- 53
2019-09-02 03:00:00 23.6 0 Calma 9 Sudeste 0 -- -- 56
2019-09-02 02:00:00 24.4 5 Sudeste 12 Sudoeste 0 -- -- 56
2019-09-02 01:00:00 26.2 6 Sudoeste 19 Sur 0 -- -- 53
2019-09-02 00:00:00 27.4 14 Sur 19 Sur 0 -- -- 50
2019-09-01 23:00:00 28.8 10 Sur 21 Sudoeste 0 -- -- 46
2019-09-01 22:00:00 30.9 18 Sudoeste 26 Sudoeste 0 -- -- 40
2019-09-01 21:00:00 34.2 13 Oeste 24 Noroeste 0 -- -- 31
2019-09-01 20:00:00 36.5 14 Oeste 22 Oeste 0 -- -- 27
2019-09-01 19:00:00 37.5 8 Sudoeste 21 Sur 0 -- -- 27
2019-09-01 18:00:00 37.9 8 Sudoeste 21 Sudoeste 0 -- -- 27
2019-09-01 17:00:00 38 11 Sudoeste 24 Sudoeste 0 -- -- 27
2019-09-01 16:00:00 37.5 13 Sudoeste 24 Sudoeste 0 -- -- 29
2019-09-01 15:00:00 35.8 8 Noroeste 21 Sudoeste 0 -- -- 32
2019-09-01 14:00:00 34.6 8 Sur 16 Sudoeste 0 -- -- 34
2019-09-01 13:00:00 32.8 5 Sur 15 Oeste 0 -- -- 38
2019-09-01 12:00:00 30.8 7 Sur 13 Sur 0 -- -- 40
2019-09-01 11:00:00 28.3 6 Sur 12 Sudoeste 0 -- -- 45
2019-09-01 10:00:00 25.3 6 Sur 8 Sur 0 -- -- 56
2019-09-01 09:00:00 21 0 Calma 4 Norte 0 -- -- 67
2019-09-01 08:00:00 20 2 Norte 4 Norte 0 -- -- 68
2019-09-01 07:00:00 20.3 2 Sudeste 4 Este 0 -- -- 69
2019-09-01 06:00:00 21.2 2 Este 5 Este 0 -- -- 68
2019-09-01 05:00:00 22.2 4 Sudoeste 11 Sur 0 -- -- 70
2019-09-01 04:00:00 22.6 4 Sudoeste 12 Sur 0 -- -- 67
2019-09-01 03:00:00 23.7 5 Sudoeste 12 Sur 0 -- -- 61
2019-09-01 02:00:00 25.1 8 Sur 16 Sur 0 -- -- 58
2019-09-01 01:00:00 26.4 13 Sudoeste 19 Sudoeste 0 -- -- 56
2019-09-01 00:00:00 27.9 10 Sur 18 Sur 0 -- -- 50
2019-08-31 23:00:00 29.4 9 Sur 17 Sur 0 -- -- 38
2019-08-31 22:00:00 30.1 3 Sur 5 Sudoeste 0 -- -- 35
2019-08-31 21:00:00 32.5 4 Sudoeste 13 Sudoeste 0 -- -- 32
2019-08-31 20:00:00 35.5 6 Sudoeste 15 Oeste 0 -- -- 28
2019-08-31 19:00:00 37 9 Sudoeste 21 Sudoeste 0 -- -- 27
2019-08-31 18:00:00 37.9 13 Sur 22 Sudoeste 0 -- -- 26
2019-08-31 17:00:00 37.9 9 Sudoeste 18 Oeste 0 -- -- 26
2019-08-31 16:00:00 36.9 8 Sudoeste 22 Sudoeste 0 -- -- 28
2019-08-31 15:00:00 36.4 8 Sur 23 Sudoeste 0 -- -- 30
2019-08-31 14:00:00 34.8 10 Sudoeste 20 Sudoeste 0 -- -- 31
2019-08-31 13:00:00 33.5 10 Sudoeste 17 Sur 0 -- -- 33
2019-08-31 12:00:00 31.9 8 Este 17 Nordeste 0 -- -- 35
2019-08-31 11:00:00 29.4 8 Nordeste 17 Este 0 -- -- 40
2019-08-31 10:00:00 27.1 5 Sudeste 13 Este 0 -- -- 43
2019-08-31 09:00:00 21.8 3 Norte 8 Norte 0 -- -- 51
2019-08-31 08:00:00 20.3 5 Norte 9 Norte 0 -- -- 52
2019-08-31 07:00:00 20.1 0 Calma 6 Norte 0 -- -- 52
2019-08-31 06:00:00 20.5 2 Norte 5 Nordeste 0 -- -- 51
2019-08-31 05:00:00 21.6 5 Sudoeste 13 Sudoeste 0 -- -- 54
2019-08-31 04:00:00 22.1 9 Sudoeste 13 Sur 0 -- -- 52
2019-08-31 03:00:00 24.7 0 Calma 13 Sudeste 0 -- -- 46
2019-08-31 02:00:00 26.6 3 Norte 17 Nordeste 0 -- -- 44
2019-08-31 01:00:00 28.5 9 Nordeste 21 Nordeste 0 -- -- 41
2019-08-31 00:00:00 28.6 19 Este 38 Este 0 -- -- 35
2019-08-30 23:00:00 27.6 9 Sur 17 Sur 0 -- -- 38
2019-08-30 22:00:00 29.1 6 Sudeste 15 Sur 0 -- -- 35
2019-08-30 21:00:00 32 12 Sur 27 Sur 0 -- -- 32
2019-08-30 20:00:00 34.8 19 Sur 27 Sudoeste 0 -- -- 29
2019-08-30 19:00:00 37 13 Sudoeste 24 Sudoeste 0 -- -- 26
2019-08-30 18:00:00 37.8 13 Sudoeste 30 Sudoeste 0 -- -- 26
2019-08-30 17:00:00 37.9 12 Sudoeste 26 Sur 0 -- -- 27
2019-08-30 16:00:00 37.6 12 Sudoeste 23 Sudoeste 0 -- -- 28
2019-08-30 15:00:00 36.4 10 Sudoeste 20 Sudoeste 0 -- -- 29
2019-08-30 14:00:00 35.1 4 Sudoeste 18 Sudeste 0 -- -- 30
2019-08-30 13:00:00 33.6 5 Nordeste 15 Sudeste 0 -- -- 32
2019-08-30 12:00:00 30.7 8 Nordeste 18 Nordeste 0 -- -- 36
2019-08-30 11:00:00 28.5 9 Norte 17 Norte 0 -- -- 42
2019-08-30 10:00:00 25.7 6 Norte 10 Norte 0 -- -- 48
2019-08-30 09:00:00 20.7 3 Norte 8 Norte 0 -- -- 57
2019-08-30 08:00:00 18.7 0 Calma 7 Sudeste 0 -- -- 57
2019-08-30 07:00:00 19.2 0 Calma 6 Norte 0 -- -- 56
2019-08-30 06:00:00 19 0 Calma 9 Sudoeste 0 -- -- 62
2019-08-30 05:00:00 20.5 4 Nordeste 6 Este 0 -- -- 55
2019-08-30 04:00:00 20.1 3 Este 6 Este 0 -- -- 54
2019-08-30 03:00:00 21.3 0 Calma 6 Este 0 -- -- 52
2019-08-30 02:00:00 22.5 4 Sudoeste 12 Sudoeste 0 -- -- 53
2019-08-30 01:00:00 22.9 8 Sur 14 Sudoeste 0 -- -- 52
2019-08-30 00:00:00 24.4 5 Sudoeste 17 Sudoeste 0 -- -- 49
2019-08-29 23:00:00 26.8 12 Sudoeste 27 Sur 0 -- -- 44
2019-08-29 22:00:00 27.7 8 Sur 25 Sur 0 -- -- 41
2019-08-29 21:00:00 30.1 16 Sur 28 Sur 0 -- -- 36
2019-08-29 20:00:00 32.9 21 Sur 32 Sur 0 -- -- 32
2019-08-29 19:00:00 35 24 Sur 35 Sur 0 -- -- 29
2019-08-29 18:00:00 36.2 17 Sur 28 Sur 0 -- -- 27
2019-08-29 17:00:00 37.1 18 Sur 30 Sur 0 -- -- 29
2019-08-29 16:00:00 35.7 10 Sur 21 Sur 0 -- -- 31
2019-08-29 15:00:00 33.5 6 Oeste 16 Sur 0 -- -- 31
2019-08-29 14:00:00 34.1 5 Sur 13 Sur 0 -- -- 31
2019-08-29 13:00:00 32.9 5 Sudoeste 13 Sur 0 -- -- 33
2019-08-29 12:00:00 30 9 Nordeste 19 Nordeste 0 -- -- 36
2019-08-29 11:00:00 27.9 8 Norte 19 Norte 0 -- -- 40
2019-08-29 10:00:00 25.2 5 Norte 11 Norte 0 -- -- 45
2019-08-29 09:00:00 23 5 Norte 12 Norte 0 -- -- 49
2019-08-29 08:00:00 22.2 2 Norte 10 Este 0 -- -- 49
2019-08-29 07:00:00 22.1 4 Norte 8 Norte 0 -- -- 49
2019-08-29 06:00:00 22.2 3 Norte 10 Sudoeste 0 -- -- 48
2019-08-29 05:00:00 22.4 3 Oeste 8 Sudeste 0 -- -- 49
2019-08-29 04:00:00 21.6 5 Sur 11 Sudoeste 0 -- -- 54
2019-08-29 03:00:00 22.9 6 Sudoeste 9 Sudoeste 0 -- -- 53
2019-08-29 02:00:00 23.4 0 Calma 3 Sudoeste 0 -- -- 53
2019-08-29 01:00:00 24.5 4 Sur 9 Sur 0 -- -- 49
2019-08-29 00:00:00 25.1 6 Sur 13 Sur 0 -- -- 49
2019-08-28 23:00:00 26.7 8 Sur 13 Sudoeste 0 -- -- 47
2019-08-28 22:00:00 28.1 3 Norte 7 Sur 0 -- -- 42
2019-08-28 21:00:00 30.4 6 Sur 15 Sudoeste 0 -- -- 39
2019-08-28 20:00:00 33.9 13 Sur 17 Sudoeste 0 -- -- 33
2019-08-28 19:00:00 35.4 5 Sudoeste 18 Oeste 0 -- -- 29
2019-08-28 18:00:00 35.3 9 Noroeste 19 Noroeste 0 -- -- 29
2019-08-28 17:00:00 35.2 7 Norte 21 Norte 0 -- -- 28
2019-08-28 16:00:00 35.3 11 Sudoeste 22 Sudoeste 0 -- -- 30
2019-08-28 15:00:00 34.1 9 Este 17 Norte 0 -- -- 32
2019-08-28 14:00:00 32.7 9 Nordeste 19 Nordeste 0 -- -- 37
2019-08-28 13:00:00 30.8 5 Noroeste 10 Norte 0 -- -- 44
2019-08-28 12:00:00 28.9 3 Nordeste 10 Oeste 0 -- -- 49
2019-08-28 11:00:00 26.9 4 Sur 8 Sur 0 -- -- 53
2019-08-28 10:00:00 23.5 2 Este 8 Norte 0 -- -- 65
2019-08-28 09:00:00 18.8 4 Norte 8 Norte 0 -- -- 84
2019-08-28 08:00:00 17.4 4 Norte 5 Norte 0 -- -- 84
2019-08-28 07:00:00 17.2 2 Nordeste 5 Norte 0 -- -- 84
2019-08-28 06:00:00 17.8 2 Norte 4 Norte 0 -- -- 81
2019-08-28 05:00:00 18.2 0 Calma 4 Sur 0 -- -- 82
2019-08-28 04:00:00 18.9 0 Calma 3 Sudeste 0 -- -- 80
2019-08-28 03:00:00 20.2 0 Calma 9 Sur 0 -- -- 78
2019-08-28 02:00:00 20.7 3 Sudeste 6 Sur 0 -- -- 75
2019-08-28 01:00:00 21.8 5 Sur 15 Sur 0 -- -- 71
2019-08-28 00:00:00 23 3 Sur 13 Oeste 0 -- -- 65
2019-08-27 23:00:00 24.2 0 Calma 6 Noroeste 0 -- -- 61
2019-08-27 22:00:00 25.7 2 Nordeste 6 Sur 0 -- -- 59
2019-08-27 21:00:00 27.8 5 Sur 11 Sur 0 -- -- 50
2019-08-27 20:00:00 30.2 5 Sudoeste 15 Sudoeste 0 -- -- 43
2019-08-27 19:00:00 31.1 7 Sudoeste 21 Sudoeste 0 -- -- 40
2019-08-27 18:00:00 31 8 Sudoeste 19 Sur 0 -- -- 42
2019-08-27 17:00:00 30.3 8 Sur 24 Sudoeste 0 -- -- 44
2019-08-27 16:00:00 29.4 13 Sudoeste 19 Sudoeste 0 -- -- 51
2019-08-27 15:00:00 27.5 9 Oeste 16 Sudoeste 0 -- -- 63
2019-08-27 14:00:00 25.5 8 Sudoeste 14 Sudoeste 0 -- -- 72
2019-08-27 13:00:00 23.1 4 Sudoeste 12 Sudoeste 0 -- -- 77
2019-08-27 12:00:00 21.6 8 Sudoeste 14 Sudoeste 0 -- -- 82
2019-08-27 11:00:00 20.7 8 Sudoeste 14 Sudoeste 0 -- -- 85
2019-08-27 10:00:00 20.1 6 Sur 11 Sudoeste 0 -- -- 90
2019-08-27 09:00:00 17.5 0 Calma 4 Oeste 0 -- -- 96
2019-08-27 08:00:00 16.7 0 Calma 4 Sudeste 0 -- -- 94
2019-08-27 07:00:00 16.8 0 Calma 4 Sudeste 0 -- -- 93
2019-08-27 06:00:00 17 0 Calma 5 Sudeste 0 -- -- 93
2019-08-27 05:00:00 16.9 0 Calma 5 Este 0 -- -- 93
2019-08-27 04:00:00 17 2 Este 4 Este 0 -- -- 92
2019-08-27 03:00:00 17.4 0 Calma 5 Sudeste 0 -- -- 90
2019-08-27 02:00:00 17.8 2 Este 7 Norte 0 -- -- 88
2019-08-27 01:00:00 17.9 2 Nordeste 12 Este 0 -- -- 88
2019-08-27 00:00:00 18.1 5 Sudoeste 10 Nordeste 0 -- -- 87
2019-08-26 23:00:00 18.3 4 Este 36 Sur 0.6 -- -- 84
2019-08-26 22:00:00 19.8 32 Sudoeste 51 Sudoeste 0 -- -- 77
2019-08-26 21:00:00 21.3 6 Sur 19 Oeste 0.4 -- -- 78
2019-08-26 20:00:00 22 14 Oeste 43 Noroeste 3 -- -- 84
2019-08-26 19:00:00 26.9 22 Oeste 49 Oeste 0 -- -- 65
2019-08-26 18:00:00 31.3 15 Sur 26 Sur 0 -- -- 41
2019-08-26 17:00:00 32.9 12 Sur 29 Sur 0 -- -- 37
2019-08-26 16:00:00 31.9 10 Sur 22 Sur 0 -- -- 42
2019-08-26 15:00:00 29.9 12 Oeste 22 Oeste 0 -- -- 51
2019-08-26 14:00:00 28.7 8 Norte 18 Norte 0 -- -- 52
2019-08-26 13:00:00 27.7 10 Norte 18 Nordeste 0 -- -- 55
2019-08-26 12:00:00 26.6 12 Nordeste 18 Norte 0 -- -- 59
2019-08-26 11:00:00 25.5 12 Nordeste 19 Nordeste 0 -- -- 62
2019-08-26 10:00:00 24.3 9 Nordeste 13 Nordeste 0 -- -- 66
2019-08-26 09:00:00 22.7 4 Norte 9 Norte 0 -- -- 68
2019-08-26 08:00:00 21.8 5 Norte 11 Noroeste 0 -- -- 69
2019-08-26 07:00:00 21.2 3 Este 6 Este 0 -- -- 72
2019-08-26 06:00:00 21 4 Este 5 Este 0 -- -- 71
2019-08-26 05:00:00 21.8 0 Calma 9 Este 0 -- -- 68
2019-08-26 04:00:00 22.4 3 Sudeste 13 Oeste 0 -- -- 67
2019-08-26 03:00:00 23 5 Sudoeste 13 Sudoeste 0 -- -- 65
2019-08-26 02:00:00 23.2 6 Sudoeste 16 Sudoeste 0 -- -- 68
2019-08-26 01:00:00 23.9 10 Sudoeste 23 Sur 0 -- -- 63
2019-08-26 00:00:00 24.8 14 Sur 32 Sur 0 -- -- 62
2019-08-25 23:00:00 25.5 17 Sur 30 Sur 0 -- -- 58
2019-08-25 22:00:00 26.2 22 Sur 38 Sur 0 -- -- 57
2019-08-25 21:00:00 27.9 19 Sur 38 Sur 0 -- -- 51
2019-08-25 20:00:00 31 23 Sur 34 Sur 0 -- -- 40
2019-08-25 19:00:00 34.6 20 Sur 33 Sur 0 -- -- 33
2019-08-25 18:00:00 35.9 19 Sur 49 Sur 0 -- -- 32
2019-08-25 17:00:00 35.3 20 Sudoeste 41 Sudoeste 0 -- -- 36
2019-08-25 16:00:00 35.1 15 Sudoeste 25 Sur 0 -- -- 39
2019-08-25 15:00:00 34.1 10 Oeste 26 Sudoeste 0 -- -- 41
2019-08-25 14:00:00 32.6 8 Oeste 21 Sudeste 0 -- -- 42
2019-08-25 13:00:00 31.6 6 Sudeste 16 Este 0 -- -- 44
2019-08-25 12:00:00 29.6 6 Este 17 Sur 0 -- -- 49
2019-08-25 11:00:00 28.1 5 Sudeste 13 Sudeste 0 -- -- 54
2019-08-25 10:00:00 25.6 8 Sudeste 14 Sudeste 0 -- -- 61
2019-08-25 09:00:00 20.9 0 Calma 5 Este 0 -- -- 67
2019-08-25 08:00:00 18.9 2 Sudoeste 5 Noroeste 0 -- -- 61
2019-08-25 07:00:00 19.5 0 Calma 5 Norte 0 -- -- 59
2019-08-25 06:00:00 19 3 Este 7 Este 0 -- -- 63
2019-08-25 05:00:00 19.8 0 Calma 5 Sudeste 0 -- -- 56
2019-08-25 04:00:00 20.9 0 Calma 4 Este 0 -- -- 54
2019-08-25 03:00:00 22.4 2 Sudeste 21 Sudoeste 0 -- -- 48
2019-08-25 02:00:00 23.8 16 Sudoeste 26 Sudoeste 0 -- -- 47
2019-08-25 01:00:00 23.9 8 Sudoeste 16 Sur 0 -- -- 58
2019-08-25 00:00:00 25.5 15 Sur 31 Sur 0 -- -- 55
2019-08-24 23:00:00 27.1 10 Sur 24 Sur 0 -- -- 44
2019-08-24 22:00:00 28.3 11 Sur 26 Sudeste 0 -- -- 34
2019-08-24 21:00:00 30.8 17 Sur 29 Sur 0 -- -- 30
2019-08-24 20:00:00 34.2 20 Sur 33 Sudoeste 0 -- -- 31
2019-08-24 19:00:00 36.6 16 Sur 24 Sudoeste 0 -- -- 30
2019-08-24 18:00:00 37.3 8 Sudoeste 18 Sudoeste 0 -- -- 29
2019-08-24 17:00:00 36.6 7 Noroeste 17 Noroeste 0 -- -- 29
2019-08-24 16:00:00 35.3 8 Norte 15 Este 0 -- -- 31
2019-08-24 15:00:00 34.5 6 Oeste 21 Este 0 -- -- 32
2019-08-24 14:00:00 33.7 4 Norte 17 Norte 0 -- -- 34
2019-08-24 13:00:00 31.9 8 Nordeste 17 Norte 0 -- -- 37
2019-08-24 12:00:00 30 6 Nordeste 18 Nordeste 0 -- -- 40
2019-08-24 11:00:00 27.6 11 Nordeste 17 Nordeste 0 -- -- 42
2019-08-24 10:00:00 26.2 7 Este 16 Nordeste 0 -- -- 48
2019-08-24 09:00:00 21.3 3 Norte 11 Nordeste 0 -- -- 57
2019-08-24 08:00:00 19.9 6 Norte 10 Norte 0 -- -- 58
2019-08-24 07:00:00 19.5 3 Norte 8 Norte 0 -- -- 59
2019-08-24 06:00:00 19.5 4 Norte 6 Norte 0 -- -- 58
2019-08-24 05:00:00 19.7 3 Este 6 Sudoeste 0 -- -- 62
2019-08-24 04:00:00 21.1 5 Sur 11 Sur 0 -- -- 59
2019-08-24 03:00:00 22.1 7 Sur 17 Sudoeste 0 -- -- 62
2019-08-24 02:00:00 22.3 11 Sudoeste 15 Sudoeste 0 -- -- 59
2019-08-24 01:00:00 23.1 5 Sudoeste 9 Sur 0 -- -- 55
2019-08-24 00:00:00 24.4 7 Sur 18 Sudoeste 0 -- -- 52
2019-08-23 23:00:00 25.7 12 Sur 19 Sur 0 -- -- 47
2019-08-23 22:00:00 27.3 12 Sur 33 Sur 0 -- -- 42
2019-08-23 21:00:00 30 13 Sur 27 Sudeste 0 -- -- 38
2019-08-23 20:00:00 33.4 20 Sur 29 Sur 0 -- -- 31
2019-08-23 19:00:00 35.5 19 Sur 27 Sudoeste 0 -- -- 29
2019-08-23 18:00:00 36.9 18 Sudoeste 31 Sur 0 -- -- 27
2019-08-23 17:00:00 37.3 10 Sur 24 Sur 0 -- -- 26
2019-08-23 16:00:00 36.3 10 Sudoeste 20 Sudoeste 0 -- -- 28
2019-08-23 15:00:00 34.9 9 Sudoeste 26 Sudoeste 0 -- -- 31
2019-08-23 14:00:00 33.8 9 Sudeste 20 Este 0 -- -- 36
2019-08-23 13:00:00 31.9 4 Este 14 Este 0 -- -- 41
2019-08-23 12:00:00 29.7 5 Norte 13 Este 0 -- -- 51
2019-08-23 11:00:00 28 4 Norte 13 Nordeste 0 -- -- 58
2019-08-23 10:00:00 25.3 2 Oeste 5 Sudoeste 0 -- -- 66
2019-08-23 09:00:00 20.5 0 Calma 2 Nordeste 0 -- -- 76
2019-08-23 08:00:00 19 0 Calma 4 Norte 0 -- -- 75
2019-08-23 07:00:00 19.5 2 Norte 5 Norte 0 -- -- 73
2019-08-23 06:00:00 20.2 0 Calma 5 Este 0 -- -- 74
2019-08-23 05:00:00 21.5 4 Este 5 Este 0 -- -- 72
2019-08-23 04:00:00 22.6 0 Calma 12 Sudoeste 0 -- -- 75
2019-08-23 03:00:00 22.9 7 Sudoeste 11 Sur 0 -- -- 72
2019-08-23 02:00:00 23.5 6 Sur 12 Sudoeste 0 -- -- 71
2019-08-23 01:00:00 24.2 5 Sudoeste 18 Sur 0 -- -- 69
2019-08-23 00:00:00 25.4 13 Sur 20 Sudoeste 0 -- -- 67
2019-08-22 23:00:00 26.1 12 Sur 27 Sur 0 -- -- 63
2019-08-22 22:00:00 27.2 19 Sur 30 Sur 0 -- -- 59
2019-08-22 21:00:00 29.3 18 Sur 30 Sur 0 -- -- 53
2019-08-22 20:00:00 31.8 20 Sur 29 Sur 0 -- -- 48
2019-08-22 19:00:00 34.1 22 Sur 31 Sudoeste 0 -- -- 42
2019-08-22 18:00:00 35.9 19 Sur 32 Sudoeste 0 -- -- 39
2019-08-22 17:00:00 36.4 12 Sur 28 Sudoeste 0 -- -- 37
2019-08-22 16:00:00 35.7 10 Sudoeste 22 Sudoeste 0 -- -- 39
2019-08-22 15:00:00 34.9 7 Sudeste 25 Este 0 -- -- 39
2019-08-22 14:00:00 33.5 8 Este 24 Nordeste 0 -- -- 44
2019-08-22 13:00:00 32.5 14 Este 27 Este 0 -- -- 47
2019-08-22 12:00:00 30.1 13 Nordeste 25 Este 0 -- -- 53
2019-08-22 11:00:00 28.4 10 Este 17 Este 0 -- -- 57
2019-08-22 10:00:00 26.9 12 Este 18 Este 0 -- -- 63
2019-08-22 09:00:00 23.2 5 Este 8 Este 0 -- -- 79
2019-08-22 08:00:00 21.5 0 Calma 5 Sudoeste 0 -- -- 80
2019-08-22 07:00:00 21.9 4 Sudoeste 9 Sur 0 -- -- 79
2019-08-22 06:00:00 22.7 4 Sudoeste 10 Sudoeste 0 -- -- 77
2019-08-22 05:00:00 23.2 4 Sur 11 Sur 0 -- -- 75
2019-08-22 04:00:00 23.8 7 Sur 15 Sur 0 -- -- 73
2019-08-22 03:00:00 24.4 9 Sudoeste 23 Sur 0 -- -- 71
2019-08-22 02:00:00 25.1 15 Sur 24 Sur 0 -- -- 68
2019-08-22 01:00:00 25.7 12 Sur 25 Sur 0 -- -- 64
2019-08-22 00:00:00 26.1 16 Sur 27 Sur 0 -- -- 61
2019-08-21 23:00:00 27.6 18 Sur 27 Sudeste 0 -- -- 57
2019-08-21 22:00:00 29.2 12 Sur 26 Sur 0 -- -- 52
2019-08-21 21:00:00 31.2 17 Sur 24 Sur 0 -- -- 46
2019-08-21 20:00:00 33.5 16 Sur 24 Sudoeste 0 -- -- 41
2019-08-21 19:00:00 35.3 15 Sudoeste 24 Sudoeste 0 -- -- 36
2019-08-21 18:00:00 35.8 12 Sur 26 Sur 0 -- -- 34
2019-08-21 17:00:00 36.1 13 Sudoeste 27 Sudoeste 0 -- -- 34
2019-08-21 16:00:00 35.5 11 Sudoeste 39 Sur 0 -- -- 35
2019-08-21 15:00:00 35.2 10 Sudoeste 28 Sudoeste 0 -- -- 38
2019-08-21 14:00:00 34.3 9 Sur 26 Sudoeste 0 -- -- 39
2019-08-21 13:00:00 32.9 10 Sur 22 Sudeste 0 -- -- 44
2019-08-21 12:00:00 31.5 5 Este 15 Este 0 -- -- 44
2019-08-21 11:00:00 28.8 7 Norte 17 Noroeste 0 -- -- 45
2019-08-21 10:00:00 27 7 Norte 14 Norte 0 -- -- 46
2019-08-21 09:00:00 23.4 5 Norte 10 Norte 0 -- -- 46
2019-08-21 08:00:00 21.5 5 Norte 9 Norte 0 -- -- 47
2019-08-21 07:00:00 21.4 5 Norte 10 Norte 0 -- -- 46
2019-08-21 06:00:00 21.6 3 Norte 9 Norte 0 -- -- 41
2019-08-21 05:00:00 20.5 0 Calma 5 Este 0 -- -- 41
2019-08-21 04:00:00 21 0 Calma 4 Este 0 -- -- 37
2019-08-21 03:00:00 21.9 2 Sudeste 8 Sur 0 -- -- 33
2019-08-21 02:00:00 22.3 7 Sur 10 Sur 0 -- -- 33
2019-08-21 01:00:00 23.5 4 Sudoeste 17 Sur 0 -- -- 36
2019-08-21 00:00:00 24 8 Sur 15 Sudoeste 0 -- -- 32